sensor_id;sensor_type;location;lat;lon;timestamp;P1;durP1;ratioP1;P2;durP2;ratioP2
15151;SDS011;7676;50.900;6.234;2024-03-23T01:05:18;11.10;;;4.17;;
15151;SDS011;7676;50.900;6.234;2024-03-23T01:20:19;7.60;;;3.80;;
15151;SDS011;7676;50.900;6.234;2024-03-23T01:35:21;6.40;;;2.77;;
15151;SDS011;7676;50.900;6.234;2024-03-23T01:50:23;6.77;;;2.37;;
15151;SDS011;7676;50.900;6.234;2024-03-23T02:05:24;6.03;;;2.50;;
15151;SDS011;7676;50.900;6.234;2024-03-23T02:20:26;6.97;;;1.93;;
15151;SDS011;7676;50.900;6.234;2024-03-23T02:35:28;7.33;;;2.07;;
15151;SDS011;7676;50.900;6.234;2024-03-23T02:50:29;4.17;;;1.50;;
15151;SDS011;7676;50.900;6.234;2024-03-23T03:05:31;7.33;;;3.53;;
15151;SDS011;7676;50.900;6.234;2024-03-23T03:20:32;4.80;;;1.77;;
15151;SDS011;7676;50.900;6.234;2024-03-23T03:35:35;4.73;;;1.80;;
15151;SDS011;7676;50.900;6.234;2024-03-23T03:50:38;5.40;;;2.00;;
15151;SDS011;7676;50.900;6.234;2024-03-23T04:05:40;5.07;;;2.07;;
15151;SDS011;7676;50.900;6.234;2024-03-23T04:20:41;7.33;;;1.73;;
15151;SDS011;7676;50.900;6.234;2024-03-23T04:35:43;5.57;;;1.73;;
15151;SDS011;7676;50.900;6.234;2024-03-23T04:50:44;5.80;;;1.63;;
15151;SDS011;7676;50.900;6.234;2024-03-23T05:05:48;4.83;;;1.70;;
15151;SDS011;7676;50.900;6.234;2024-03-23T05:20:55;6.27;;;2.47;;
15151;SDS011;7676;50.900;6.234;2024-03-23T05:36:00;6.07;;;2.63;;
15151;SDS011;7676;50.900;6.234;2024-03-23T05:51:02;5.57;;;2.70;;
15151;SDS011;7676;50.900;6.234;2024-03-23T06:06:04;6.40;;;2.20;;
15151;SDS011;7676;50.900;6.234;2024-03-23T06:21:14;8.10;;;3.27;;
15151;SDS011;7676;50.900;6.234;2024-03-23T06:36:16;7.03;;;4.73;;
15151;SDS011;7676;50.900;6.234;2024-03-23T06:51:30;12.07;;;5.50;;
15151;SDS011;7676;50.900;6.234;2024-03-23T07:07:42;2.60;;;1.70;;
15151;SDS011;7676;50.900;6.234;2024-03-23T07:23:45;3.87;;;2.53;;
15151;SDS011;7676;50.900;6.234;2024-03-23T07:38:47;3.83;;;2.07;;
15151;SDS011;7676;50.900;6.234;2024-03-23T07:53:49;9.07;;;4.57;;
15151;SDS011;7676;50.900;6.234;2024-03-23T08:08:57;12.80;;;5.33;;
15151;SDS011;7676;50.900;6.234;2024-03-23T08:24:02;11.00;;;4.90;;
15151;SDS011;7676;50.900;6.234;2024-03-23T08:39:04;8.73;;;4.30;;
15151;SDS011;7676;50.900;6.234;2024-03-23T08:54:07;8.23;;;3.60;;
15151;SDS011;7676;50.900;6.234;2024-03-23T09:09:17;7.30;;;2.93;;
15151;SDS011;7676;50.900;6.234;2024-03-23T09:24:20;6.63;;;2.60;;
15151;SDS011;7676;50.900;6.234;2024-03-23T09:39:22;8.43;;;2.83;;
15151;SDS011;7676;50.900;6.234;2024-03-23T09:54:24;8.03;;;2.13;;
15151;SDS011;7676;50.900;6.234;2024-03-23T10:09:26;5.13;;;2.10;;
15151;SDS011;7676;50.900;6.234;2024-03-23T10:24:28;4.33;;;1.63;;
15151;SDS011;7676;50.900;6.234;2024-03-23T10:39:39;3.53;;;1.70;;
15151;SDS011;7676;50.900;6.234;2024-03-23T10:54:42;4.90;;;1.53;;
15151;SDS011;7676;50.900;6.234;2024-03-23T11:09:49;4.53;;;1.70;;
15151;SDS011;7676;50.900;6.234;2024-03-23T11:24:53;5.17;;;1.80;;
15151;SDS011;7676;50.900;6.234;2024-03-23T11:39:58;5.27;;;2.10;;
15151;SDS011;7676;50.900;6.234;2024-03-23T11:55:04;2.73;;;0.93;;
15151;SDS011;7676;50.900;6.234;2024-03-23T12:10:09;1.60;;;0.90;;
15151;SDS011;7676;50.900;6.234;2024-03-23T12:25:14;4.50;;;1.40;;
15151;SDS011;7676;50.900;6.234;2024-03-23T12:40:16;4.03;;;1.50;;
15151;SDS011;7676;50.900;6.234;2024-03-23T12:55:21;5.13;;;1.57;;
15151;SDS011;7676;50.900;6.234;2024-03-23T13:10:22;4.13;;;1.97;;
15151;SDS011;7676;50.900;6.234;2024-03-23T13:25:27;2.00;;;1.60;;
15151;SDS011;7676;50.900;6.234;2024-03-23T13:40:30;2.57;;;1.50;;
15151;SDS011;7676;50.900;6.234;2024-03-23T13:55:31;1.63;;;1.30;;
15151;SDS011;7676;50.900;6.234;2024-03-23T14:10:36;2.10;;;1.17;;
15151;SDS011;7676;50.900;6.234;2024-03-23T14:25:42;3.07;;;1.33;;
15151;SDS011;7676;50.900;6.234;2024-03-23T14:40:44;2.80;;;2.00;;
15151;SDS011;7676;50.900;6.234;2024-03-23T14:55:46;2.73;;;1.70;;
15151;SDS011;7676;50.900;6.234;2024-03-23T15:10:50;2.40;;;1.50;;
15151;SDS011;7676;50.900;6.234;2024-03-23T15:25:59;3.27;;;1.67;;
15151;SDS011;7676;50.900;6.234;2024-03-23T15:41:01;2.47;;;1.30;;
15151;SDS011;7676;50.900;6.234;2024-03-23T15:56:04;3.43;;;0.93;;
15151;SDS011;7676;50.900;6.234;2024-03-23T16:11:06;3.40;;;1.40;;
15151;SDS011;7676;50.900;6.234;2024-03-23T16:26:11;4.80;;;1.80;;
15151;SDS011;7676;50.900;6.234;2024-03-23T16:41:13;2.30;;;1.47;;
15151;SDS011;7676;50.900;6.234;2024-03-23T16:56:16;2.20;;;1.00;;
15151;SDS011;7676;50.900;6.234;2024-03-23T17:11:18;1.37;;;0.90;;
15151;SDS011;7676;50.900;6.234;2024-03-23T17:26:19;4.03;;;1.83;;
15151;SDS011;7676;50.900;6.234;2024-03-23T17:41:22;2.20;;;1.80;;
15151;SDS011;7676;50.900;6.234;2024-03-23T17:56:25;2.30;;;1.40;;
15151;SDS011;7676;50.900;6.234;2024-03-23T18:11:27;2.87;;;1.20;;
15151;SDS011;7676;50.900;6.234;2024-03-23T18:26:29;2.40;;;2.07;;
15151;SDS011;7676;50.900;6.234;2024-03-23T18:41:31;1.70;;;1.20;;
15151;SDS011;7676;50.900;6.234;2024-03-23T18:56:33;3.10;;;1.60;;
15151;SDS011;7676;50.900;6.234;2024-03-23T19:11:34;3.47;;;1.50;;
15151;SDS011;7676;50.900;6.234;2024-03-23T19:26:36;4.23;;;1.67;;
15151;SDS011;7676;50.900;6.234;2024-03-23T19:41:39;4.73;;;2.70;;
15151;SDS011;7676;50.900;6.234;2024-03-23T19:56:43;4.37;;;2.07;;
15151;SDS011;7676;50.900;6.234;2024-03-23T20:11:45;5.97;;;2.80;;
15151;SDS011;7676;50.900;6.234;2024-03-23T20:26:46;5.97;;;3.40;;
15151;SDS011;7676;50.900;6.234;2024-03-23T20:41:48;5.67;;;2.87;;
15151;SDS011;7676;50.900;6.234;2024-03-23T20:56:50;3.10;;;2.07;;
15151;SDS011;7676;50.900;6.234;2024-03-23T21:12:00;2.23;;;2.00;;
15151;SDS011;7676;50.900;6.234;2024-03-23T21:27:42;3.90;;;2.70;;
15151;SDS011;7676;50.900;6.234;2024-03-23T21:42:44;3.30;;;2.47;;
15151;SDS011;7676;50.900;6.234;2024-03-23T21:57:52;2.90;;;2.00;;
15151;SDS011;7676;50.900;6.234;2024-03-23T22:14:02;3.27;;;1.87;;
15151;SDS011;7676;50.900;6.234;2024-03-23T22:29:04;2.53;;;1.63;;
15151;SDS011;7676;50.900;6.234;2024-03-23T22:44:05;2.60;;;2.07;;
15151;SDS011;7676;50.900;6.234;2024-03-23T22:59:07;3.07;;;2.10;;
15151;SDS011;7676;50.900;6.234;2024-03-23T23:14:08;2.70;;;2.17;;
15151;SDS011;7676;50.900;6.234;2024-03-23T23:29:10;5.47;;;2.10;;
15151;SDS011;7676;50.900;6.234;2024-03-23T23:44:12;3.03;;;2.20;;
15151;SDS011;7676;50.900;6.234;2024-03-23T23:59:14;4.67;;;2.97;;
